Mugan — 9HA2962 — position and weather

sailwx.info

Track history (hours):
 
Tides and Currents Weather Stations Pressure Air Temp Water Temp Dewpoint Dewpoint Depression Visibility Wind Speed Wind Dir Waves Ship Positions

Mugan

Last reported at 2015-May-04 18:32 UTC. Time now 2015-May-05 19:19 UTC.
Position N 36°17' E 015°37'.

Length 140 m; draft 3.3 m.

Type: Ship. MMSI: 256914000.

Date/timePositionNaut miles runAvg speedWind from/ knotsBaromVisibWave heightAir tempDewpointWater temp
2015-May-04 18:32N 36°17' E 015°37'1410.0
2015-May-04 17:07N 36°17' E 015°20'6 9.9
2015-May-04 16:32N 36°18' E 015°12'10 9.8
2015-May-04 15:33N 36°18' E 015°00'10 9.6
2015-May-04 14:33N 36°18' E 014°49'10 9.5
2015-May-04 13:33N 36°19' E 014°37'9 9.2
2015-May-04 12:33N 36°19' E 014°25'9 9.3
2015-May-04 11:33N 36°23' E 014°15'10 9.8
2015-May-04 10:33N 36°28' E 014°04'1210.0
2015-May-04 09:19N 36°33' E 013°50'810.2
2015-May-04 08:33N 36°37' E 013°42'1010.0
2015-May-04 07:33N 36°41' E 013°31'1010.2
2015-May-04 06:34N 36°46' E 013°19'1010.1
2015-May-04 05:33N 36°51' E 013°08'10 9.9
2015-May-04 04:33N 36°55' E 012°57'10 9.9
2015-May-04 03:32N 37°00' E 012°46'2010.0
2015-May-04 01:32N 37°09' E 012°24'11 9.9
2015-May-04 00:27N 37°14' E 012°12'6910.0
2015-May-03 17:32N 37°46' E 010°54'1110.0
2015-May-03 16:24N 37°51' E 010°42'83 9.3
2015-May-03 07:26N 38°20' E 009°02'22 9.9
2015-May-03 05:15N 38°19' E 008°35'18710.0
2015-May-02 10:33N 38°13' E 004°37'9 8.6
2015-May-02 09:30N 38°13' E 004°26'10 9.1
2015-May-02 08:21N 38°12' E 004°13'1810.2
2015-May-02 06:33N 38°12' E 003°49'1110.4
2015-May-02 05:32N 38°11' E 003°36'1010.7
2015-May-02 04:33N 38°11' E 003°22'1110.7
2015-May-02 03:31N 38°10' E 003°08'1010.5
2015-May-02 02:32N 38°09' E 002°55'1010.5
2015-May-02 01:33N 38°05' E 002°43'10 9.9
2015-May-02 00:32N 38°01' E 002°32'9 9.5
2015-May-01 23:33N 37°57' E 002°21'1110.0
2015-May-01 22:29N 37°53' E 002°08'1010.2
2015-May-01 21:33N 37°49' E 001°57'1110.2
2015-May-01 20:31N 37°44' E 001°45'9 9.5
2015-May-01 19:33N 37°41' E 001°34'9 9.4
2015-May-01 18:33N 37°37' E 001°23'1010.2
2015-May-01 17:33N 37°33' E 001°12'1010.2
2015-May-01 16:33N 37°29' E 000°60'1010.3
2015-May-01 15:33N 37°25' E 000°48'1010.3
2015-May-01 14:33N 37°21' E 000°36'1010.3
2015-May-01 13:33N 37°16' E 000°25'1010.0
2015-May-01 12:33N 37°12' E 000°13'1010.1
2015-May-01 11:33N 37°08' E 000°01'1010.3
2015-May-01 10:32N 37°04' W 000°11'1010.1
2015-May-01 09:33N 37°00' W 000°22'12 9.9
2015-May-01 08:20N 36°55' W 000°36'8 9.8
2015-May-01 07:32N 36°52' W 000°45'13 9.9
2015-May-01 06:16N 36°47' W 000°59'18 9.8
2015-May-01 04:24N 36°40' W 001°20'2910.3
2015-May-01 01:33N 36°28' W 001°54'10 9.8
2015-May-01 00:32N 36°24' W 002°05'10 9.9
2015-Apr-30 23:33N 36°22' W 002°17'22 9.8
2015-Apr-30 21:20N 36°18' W 002°43'1110.0
2015-Apr-30 20:16N 36°17' W 002°56'710.0
2015-Apr-30 19:33N 36°16' W 003°05'2310.0
2015-Apr-30 17:17N 36°13' W 003°33'8510.9
2015-Apr-30 09:32N 35°60' W 005°16'  
2015-Apr-24 20:11N 38°40' W 010°12'  
Track history (hours):
 
Tides and Currents Weather Stations Pressure Air Temp Water Temp Dewpoint Dewpoint Depression Visibility Wind Speed Wind Dir Waves Ship Positions

Mugan

Last reported at 2015-May-04 18:32 UTC. Time now 2015-May-05 19:19 UTC.
Position N 36°17' E 015°37'.

Length 140 m; draft 3.3 m.

Type: Ship. MMSI: 256914000.

Date/timePositionNaut miles runAvg speedWind from/ knotsBaromVisibWave heightAir tempDewpointWater temp
2015-May-04 18:32N 36°17' E 015°37'1410.0
2015-May-04 17:07N 36°17' E 015°20'6 9.9
2015-May-04 16:32N 36°18' E 015°12'10 9.8
2015-May-04 15:33N 36°18' E 015°00'10 9.6
2015-May-04 14:33N 36°18' E 014°49'10 9.5
2015-May-04 13:33N 36°19' E 014°37'9 9.2
2015-May-04 12:33N 36°19' E 014°25'9 9.3
2015-May-04 11:33N 36°23' E 014°15'10 9.8
2015-May-04 10:33N 36°28' E 014°04'1210.0
2015-May-04 09:19N 36°33' E 013°50'810.2
2015-May-04 08:33N 36°37' E 013°42'1010.0
2015-May-04 07:33N 36°41' E 013°31'1010.2
2015-May-04 06:34N 36°46' E 013°19'1010.1
2015-May-04 05:33N 36°51' E 013°08'10 9.9
2015-May-04 04:33N 36°55' E 012°57'10 9.9
2015-May-04 03:32N 37°00' E 012°46'2010.0
2015-May-04 01:32N 37°09' E 012°24'11 9.9
2015-May-04 00:27N 37°14' E 012°12'6910.0
2015-May-03 17:32N 37°46' E 010°54'1110.0
2015-May-03 16:24N 37°51' E 010°42'83 9.3
2015-May-03 07:26N 38°20' E 009°02'22 9.9
2015-May-03 05:15N 38°19' E 008°35'18710.0
2015-May-02 10:33N 38°13' E 004°37'9 8.6
2015-May-02 09:30N 38°13' E 004°26'10 9.1
2015-May-02 08:21N 38°12' E 004°13'1810.2
2015-May-02 06:33N 38°12' E 003°49'1110.4
2015-May-02 05:32N 38°11' E 003°36'1010.7
2015-May-02 04:33N 38°11' E 003°22'1110.7
2015-May-02 03:31N 38°10' E 003°08'1010.5
2015-May-02 02:32N 38°09' E 002°55'1010.5
2015-May-02 01:33N 38°05' E 002°43'10 9.9
2015-May-02 00:32N 38°01' E 002°32'9 9.5
2015-May-01 23:33N 37°57' E 002°21'1110.0
2015-May-01 22:29N 37°53' E 002°08'1010.2
2015-May-01 21:33N 37°49' E 001°57'1110.2
2015-May-01 20:31N 37°44' E 001°45'9 9.5
2015-May-01 19:33N 37°41' E 001°34'9 9.4
2015-May-01 18:33N 37°37' E 001°23'1010.2
2015-May-01 17:33N 37°33' E 001°12'1010.2
2015-May-01 16:33N 37°29' E 000°60'1010.3
2015-May-01 15:33N 37°25' E 000°48'1010.3
2015-May-01 14:33N 37°21' E 000°36'1010.3
2015-May-01 13:33N 37°16' E 000°25'1010.0
2015-May-01 12:33N 37°12' E 000°13'1010.1
2015-May-01 11:33N 37°08' E 000°01'1010.3
2015-May-01 10:32N 37°04' W 000°11'1010.1
2015-May-01 09:33N 37°00' W 000°22'12 9.9
2015-May-01 08:20N 36°55' W 000°36'8 9.8
2015-May-01 07:32N 36°52' W 000°45'13 9.9
2015-May-01 06:16N 36°47' W 000°59'18 9.8
2015-May-01 04:24N 36°40' W 001°20'2910.3
2015-May-01 01:33N 36°28' W 001°54'10 9.8
2015-May-01 00:32N 36°24' W 002°05'10 9.9
2015-Apr-30 23:33N 36°22' W 002°17'22 9.8
2015-Apr-30 21:20N 36°18' W 002°43'1110.0
2015-Apr-30 20:16N 36°17' W 002°56'710.0
2015-Apr-30 19:33N 36°16' W 003°05'2310.0
2015-Apr-30 17:17N 36°13' W 003°33'8510.9
2015-Apr-30 09:32N 35°60' W 005°16'  
2015-Apr-24 20:11N 38°40' W 010°12'  

Dump ship's entire track history